createdAt,value
2017-07-24T00:01:45.667Z,93.60
2017-07-24T00:04:14.081Z,93.70
2017-07-24T00:06:42.506Z,93.50
2017-07-24T00:09:10.918Z,93.70
2017-07-24T00:11:39.338Z,93.50
2017-07-24T00:14:07.776Z,93.80
2017-07-24T00:16:36.187Z,93.90
2017-07-24T00:19:04.594Z,93.70
2017-07-24T00:21:33.022Z,93.80
2017-07-24T00:24:02.212Z,93.60
2017-07-24T00:26:30.615Z,93.60
2017-07-24T00:28:59.057Z,93.70
2017-07-24T00:31:27.466Z,93.60
2017-07-24T00:33:55.889Z,93.70
2017-07-24T00:36:24.325Z,93.60
2017-07-24T00:38:52.736Z,93.70
2017-07-24T00:41:21.145Z,94.00
2017-07-24T00:43:49.575Z,93.60
2017-07-24T00:46:17.980Z,93.70
2017-07-24T00:48:46.381Z,93.70
2017-07-24T00:51:14.810Z,93.70
2017-07-24T00:53:43.206Z,94.20
2017-07-24T00:56:11.615Z,94.30
2017-07-24T00:58:40.079Z,94.00
2017-07-24T01:01:08.497Z,93.60
2017-07-24T01:03:36.917Z,93.80
2017-07-24T01:06:05.333Z,93.90
2017-07-24T01:08:33.750Z,93.70
2017-07-24T01:11:02.199Z,93.70
2017-07-24T01:13:30.622Z,93.80
2017-07-24T01:15:59.029Z,94.20
2017-07-24T01:18:27.135Z,93.60
2017-07-24T01:20:55.566Z,94.00
2017-07-24T01:23:23.988Z,94.00
2017-07-24T01:25:52.463Z,94.50
2017-07-24T01:28:20.876Z,94.00
2017-07-24T01:30:49.286Z,94.10
2017-07-24T01:33:17.711Z,94.00
2017-07-24T01:35:46.136Z,94.00
2017-07-24T01:38:14.551Z,93.80
2017-07-24T01:40:42.998Z,93.70
2017-07-24T01:43:11.417Z,93.70
2017-07-24T01:45:39.846Z,94.20
2017-07-24T01:48:08.291Z,94.10
2017-07-24T01:50:36.712Z,93.90
2017-07-24T01:53:05.143Z,94.10
2017-07-24T01:55:33.591Z,93.30
2017-07-24T01:58:02.006Z,93.80
2017-07-24T02:00:29.725Z,93.70
2017-07-24T02:02:58.157Z,93.70
2017-07-24T02:05:26.581Z,93.60
2017-07-24T02:07:54.999Z,94.00
2017-07-24T02:10:23.448Z,93.80
2017-07-24T02:12:51.931Z,94.10
2017-07-24T02:15:20.355Z,93.60
2017-07-24T02:17:48.785Z,93.50
2017-07-24T02:20:17.202Z,93.50
2017-07-24T02:22:45.638Z,94.00
2017-07-24T02:25:14.085Z,93.80
2017-07-24T02:27:42.495Z,93.40
2017-07-24T02:30:10.913Z,94.20
2017-07-24T02:32:39.349Z,94.40
2017-07-24T02:35:08.439Z,94.10
2017-07-24T02:37:36.853Z,93.90
2017-07-24T02:40:05.265Z,94.20
2017-07-24T02:42:33.669Z,94.00
2017-07-24T02:45:02.098Z,93.90
2017-07-24T02:47:30.497Z,93.80
2017-07-24T02:49:58.911Z,93.10
2017-07-24T02:52:27.350Z,92.80
2017-07-24T02:54:55.754Z,92.90
2017-07-24T02:57:24.196Z,93.10
2017-07-24T02:59:52.658Z,94.00
2017-07-24T03:02:21.065Z,93.50
2017-07-24T03:04:49.474Z,93.90
2017-07-24T03:07:17.920Z,93.70
2017-07-24T03:09:46.323Z,93.30
2017-07-24T03:12:14.744Z,93.80
2017-07-24T03:14:43.177Z,93.40
2017-07-24T03:17:11.606Z,93.20
2017-07-24T03:19:40.020Z,93.20
2017-07-24T03:22:08.456Z,93.20
2017-07-24T03:24:37.667Z,93.90
2017-07-24T03:27:06.073Z,93.90
2017-07-24T03:29:34.674Z,94.10
2017-07-24T03:32:03.094Z,94.60
2017-07-24T03:34:31.503Z,94.40
2017-07-24T03:36:59.935Z,93.70
2017-07-24T03:39:28.346Z,94.00
2017-07-24T03:41:57.543Z,93.50
2017-07-24T03:44:25.984Z,93.50
2017-07-24T03:46:54.398Z,94.00
2017-07-24T03:49:22.809Z,94.20
2017-07-24T03:51:51.251Z,94.80
2017-07-24T03:54:19.671Z,94.60
2017-07-24T03:56:48.083Z,94.70
2017-07-24T03:59:16.550Z,94.60
2017-07-24T04:01:44.964Z,95.10
2017-07-24T04:04:13.402Z,94.70
2017-07-24T04:06:41.873Z,94.60
2017-07-24T04:09:10.324Z,95.00
2017-07-24T04:11:38.742Z,94.70
2017-07-24T04:14:07.169Z,94.50
2017-07-24T04:16:35.578Z,95.00
2017-07-24T04:19:03.982Z,94.20
2017-07-24T04:21:32.432Z,94.40
2017-07-24T04:24:00.854Z,93.90
2017-07-24T04:26:29.266Z,94.10
2017-07-24T04:28:57.710Z,94.60
2017-07-24T04:31:26.120Z,94.70
2017-07-24T04:33:54.557Z,93.60
2017-07-24T04:36:22.995Z,93.30
2017-07-24T04:38:51.402Z,93.40
2017-07-24T04:41:19.830Z,93.30
2017-07-24T04:43:48.265Z,93.70
2017-07-24T04:46:16.676Z,94.60
2017-07-24T04:48:45.097Z,93.90
2017-07-24T04:51:13.529Z,93.80
2017-07-24T04:53:41.942Z,93.70
2017-07-24T04:56:10.363Z,94.70
2017-07-24T04:58:38.804Z,94.80
2017-07-24T05:01:07.267Z,93.90
2017-07-24T05:03:35.721Z,93.90
2017-07-24T05:06:04.182Z,94.10
2017-07-24T05:08:32.626Z,94.70
2017-07-24T05:11:01.060Z,93.90
2017-07-24T05:13:29.521Z,94.00
2017-07-24T05:15:57.949Z,94.00
2017-07-24T05:18:26.409Z,94.10
2017-07-24T05:20:54.889Z,94.70
2017-07-24T05:23:23.353Z,94.50
2017-07-24T05:25:51.817Z,94.10
2017-07-24T05:28:20.309Z,94.30
2017-07-24T05:30:48.774Z,94.10
2017-07-24T05:33:17.242Z,94.10
2017-07-24T05:35:45.702Z,94.40
2017-07-24T05:38:14.153Z,93.70
2017-07-24T05:40:42.622Z,93.70
2017-07-24T05:43:11.385Z,93.90
2017-07-24T05:45:39.795Z,94.00
2017-07-24T05:48:08.218Z,94.20
2017-07-24T05:50:36.705Z,93.90
2017-07-24T05:53:05.133Z,93.50
2017-07-24T05:55:33.585Z,93.80
2017-07-24T05:58:02.133Z,93.60
2017-07-24T06:00:30.579Z,93.00
2017-07-24T06:02:59.022Z,93.30
2017-07-24T06:05:27.458Z,93.60
2017-07-24T06:07:55.890Z,93.20
2017-07-24T06:10:24.364Z,92.60
2017-07-24T06:12:52.837Z,92.40
2017-07-24T06:15:21.283Z,92.60
2017-07-24T06:17:49.782Z,92.60
2017-07-24T06:20:18.245Z,92.50
2017-07-24T06:22:46.665Z,92.80
2017-07-24T06:25:15.871Z,94.10
2017-07-24T06:27:44.293Z,94.10
2017-07-24T06:30:12.719Z,94.00
2017-07-24T06:32:41.177Z,94.20
2017-07-24T06:35:09.582Z,94.00
2017-07-24T06:37:37.981Z,94.10
2017-07-24T06:40:06.405Z,94.10
2017-07-24T06:42:34.813Z,93.00
2017-07-24T06:45:03.218Z,92.80
2017-07-24T06:47:31.638Z,92.90
2017-07-24T06:50:00.037Z,93.00
2017-07-24T06:52:28.433Z,91.60
2017-07-24T06:54:56.870Z,91.90
2017-07-24T06:57:25.275Z,92.00
2017-07-24T06:59:53.695Z,90.80
2017-07-24T07:02:22.109Z,90.10
2017-07-24T07:04:50.515Z,90.50
2017-07-24T07:07:18.912Z,91.40
2017-07-24T07:09:47.349Z,90.70
2017-07-24T07:12:15.766Z,89.80
2017-07-24T07:14:44.169Z,88.40
2017-07-24T07:17:12.594Z,89.50
2017-07-24T07:19:40.996Z,90.00
2017-07-24T07:22:09.413Z,90.00
2017-07-24T07:24:38.123Z,90.40
2017-07-24T07:27:06.527Z,91.10
2017-07-24T07:29:34.933Z,91.00
2017-07-24T07:32:03.369Z,91.20
2017-07-24T07:34:31.779Z,91.10
2017-07-24T07:37:00.184Z,90.80
2017-07-24T07:39:28.609Z,91.80
2017-07-24T07:41:57.023Z,91.50
2017-07-24T07:44:25.436Z,90.70
2017-07-24T07:46:53.861Z,90.80
2017-07-24T07:49:22.262Z,92.30
2017-07-24T07:51:50.667Z,91.50
2017-07-24T07:54:19.115Z,91.80
2017-07-24T07:56:47.525Z,91.50
2017-07-24T07:59:15.929Z,91.50
2017-07-24T08:01:44.462Z,92.00
2017-07-24T08:04:12.863Z,91.70
2017-07-24T08:06:41.266Z,91.80
2017-07-24T08:09:09.689Z,91.80
2017-07-24T08:11:37.900Z,91.00
2017-07-24T08:14:06.458Z,91.40
2017-07-24T08:16:34.681Z,91.00
2017-07-24T08:19:03.089Z,91.90
2017-07-24T08:21:31.494Z,91.50
2017-07-24T08:23:59.931Z,90.90
2017-07-24T08:26:28.350Z,91.30
2017-07-24T08:28:56.750Z,91.10
2017-07-24T08:31:25.171Z,90.80
2017-07-24T08:33:53.230Z,91.60
2017-07-24T08:36:21.634Z,92.50
2017-07-24T08:38:50.066Z,92.50
2017-07-24T08:41:18.474Z,93.20
2017-07-24T08:43:46.886Z,93.10
2017-07-24T08:46:15.331Z,93.30
2017-07-24T08:48:43.754Z,93.20
2017-07-24T08:51:12.167Z,94.30
2017-07-24T08:53:40.616Z,93.70
2017-07-24T08:56:09.025Z,93.70
2017-07-24T08:58:37.451Z,93.30
2017-07-24T09:01:05.878Z,93.00
2017-07-24T09:03:34.309Z,92.50
2017-07-24T09:06:02.755Z,93.20
2017-07-24T09:08:31.155Z,93.90
2017-07-24T09:10:59.570Z,94.00
2017-07-24T09:13:27.998Z,93.90
2017-07-24T09:15:56.426Z,93.70
2017-07-24T09:18:24.836Z,93.40
2017-07-24T09:20:53.265Z,93.50
2017-07-24T09:23:21.667Z,94.50
2017-07-24T09:25:50.073Z,94.20
2017-07-24T09:28:19.246Z,94.40
2017-07-24T09:30:47.649Z,93.60
2017-07-24T09:33:16.053Z,93.20
2017-07-24T09:35:44.489Z,93.30
2017-07-24T09:38:12.894Z,92.00
2017-07-24T09:40:41.305Z,91.40
2017-07-24T09:43:09.915Z,93.40
2017-07-24T09:45:38.325Z,93.50
2017-07-24T09:48:06.725Z,94.20
2017-07-24T09:50:35.213Z,94.80
2017-07-24T09:53:04.403Z,95.80
2017-07-24T09:55:32.848Z,95.80
2017-07-24T09:58:01.269Z,96.50
2017-07-24T10:00:29.679Z,96.40
2017-07-24T10:02:58.134Z,95.70
2017-07-24T10:05:26.533Z,95.00
2017-07-24T10:07:54.965Z,95.10
2017-07-24T10:10:23.413Z,95.10
2017-07-24T10:12:51.825Z,94.60
2017-07-24T10:15:20.242Z,95.10
2017-07-24T10:17:48.665Z,94.60
2017-07-24T10:20:17.067Z,95.10
2017-07-24T10:22:45.481Z,94.20
2017-07-24T10:25:13.905Z,95.20
2017-07-24T10:27:42.313Z,95.80
2017-07-24T10:30:10.728Z,96.10
2017-07-24T10:32:39.165Z,95.50
2017-07-24T10:35:07.573Z,95.80
2017-07-24T10:37:35.986Z,95.60
2017-07-24T10:40:04.445Z,95.00
2017-07-24T10:42:32.860Z,95.00
2017-07-24T10:45:01.086Z,93.60
2017-07-24T10:47:29.513Z,93.40
2017-07-24T10:49:57.926Z,93.40
2017-07-24T10:52:26.329Z,94.10
2017-07-24T10:54:54.789Z,93.00
2017-07-24T10:57:23.203Z,94.30
2017-07-24T10:59:51.618Z,93.20
2017-07-24T11:02:20.077Z,93.70
2017-07-24T11:04:48.483Z,93.60
2017-07-24T11:07:16.936Z,93.40
2017-07-24T11:09:45.394Z,93.20
2017-07-24T11:12:13.838Z,93.20
2017-07-24T11:14:42.307Z,92.80
2017-07-24T11:17:10.800Z,93.50
2017-07-24T11:19:39.250Z,93.80
2017-07-24T11:22:07.701Z,93.00
2017-07-24T11:24:36.212Z,93.50
2017-07-24T11:27:04.638Z,94.10
2017-07-24T11:29:33.052Z,93.90
2017-07-24T11:32:01.522Z,93.60
2017-07-24T11:34:29.937Z,93.40
2017-07-24T11:36:58.355Z,94.20
2017-07-24T11:39:26.970Z,93.30
2017-07-24T11:41:55.418Z,94.40
2017-07-24T11:44:23.834Z,94.70
2017-07-24T11:46:52.253Z,94.70
2017-07-24T11:49:20.669Z,94.00
2017-07-24T11:51:49.076Z,94.10
2017-07-24T11:54:17.670Z,93.90
2017-07-24T11:56:46.192Z,93.70
2017-07-24T11:59:14.739Z,93.60
2017-07-24T12:01:43.486Z,94.10
2017-07-24T12:04:11.862Z,93.90
2017-07-24T12:06:40.680Z,94.10
2017-07-24T12:09:09.214Z,94.20
2017-07-24T12:11:38.160Z,92.80
2017-07-24T12:14:06.889Z,91.10
2017-07-24T12:16:35.446Z,91.10
2017-07-24T12:19:04.173Z,89.80
2017-07-24T12:21:32.621Z,90.50
2017-07-24T12:24:01.082Z,81.20
2017-07-24T12:26:29.511Z,83.70
2017-07-24T12:28:57.942Z,83.00
2017-07-24T12:31:26.404Z,84.70
2017-07-24T12:33:54.831Z,80.00
2017-07-24T12:36:23.263Z,83.40
2017-07-24T12:38:51.755Z,83.30
2017-07-24T12:41:20.191Z,74.60
2017-07-24T12:43:48.613Z,78.70
2017-07-24T12:46:17.102Z,79.00
2017-07-24T12:48:45.574Z,79.00
2017-07-24T12:51:14.065Z,80.20
2017-07-24T12:53:42.571Z,81.70
2017-07-24T12:56:11.040Z,78.50
2017-07-24T12:58:39.547Z,75.30
2017-07-24T13:01:08.007Z,79.50
2017-07-24T13:03:36.471Z,78.30
2017-07-24T13:06:04.908Z,72.50
2017-07-24T13:08:33.368Z,65.20
2017-07-24T13:11:01.795Z,66.40
2017-07-24T13:13:30.250Z,64.40
2017-07-24T13:15:58.703Z,69.60
2017-07-24T13:18:27.177Z,67.70
2017-07-24T13:20:55.685Z,71.90
2017-07-24T13:23:24.168Z,69.90
2017-07-24T13:25:52.677Z,69.40
2017-07-24T13:28:21.261Z,63.60
2017-07-24T13:30:49.705Z,65.80
2017-07-24T13:33:18.179Z,58.20
2017-07-24T13:35:46.687Z,62.30
2017-07-24T13:38:15.212Z,65.10
2017-07-24T13:40:43.720Z,67.50
2017-07-24T13:43:12.208Z,70.90
2017-07-24T13:45:40.699Z,72.80
2017-07-24T13:48:09.172Z,70.40
2017-07-24T13:50:37.693Z,70.70
2017-07-24T13:53:06.199Z,74.60
2017-07-24T13:55:34.688Z,76.40
2017-07-24T13:58:03.984Z,72.50
2017-07-24T14:00:32.466Z,72.60
2017-07-24T14:03:00.948Z,71.90
2017-07-24T14:05:29.503Z,71.90
2017-07-24T14:07:57.970Z,70.60
2017-07-24T14:10:26.440Z,70.10
2017-07-24T14:12:54.959Z,69.80
2017-07-24T14:15:23.481Z,72.10
2017-07-24T14:17:51.972Z,67.10
2017-07-24T14:20:20.481Z,68.20
2017-07-24T14:22:48.954Z,67.80
2017-07-24T14:25:17.413Z,68.00
2017-07-24T14:27:45.913Z,68.30
2017-07-24T14:30:14.401Z,64.50
2017-07-24T14:32:42.858Z,66.00
2017-07-24T14:35:12.223Z,67.30
2017-07-24T14:37:40.665Z,67.50
2017-07-24T14:40:09.151Z,63.10
2017-07-24T14:42:37.630Z,66.30
2017-07-24T14:45:07.016Z,65.60
2017-07-24T14:47:35.476Z,62.80
2017-07-24T14:50:03.957Z,62.50
2017-07-24T14:52:32.417Z,67.30
2017-07-24T14:55:00.908Z,65.30
2017-07-24T14:57:29.392Z,65.40
2017-07-24T14:59:57.877Z,64.40
2017-07-24T15:02:26.354Z,66.40
2017-07-24T15:04:54.829Z,66.30
2017-07-24T15:07:23.297Z,69.30
2017-07-24T15:09:51.750Z,68.80
2017-07-24T15:12:20.223Z,70.60
2017-07-24T15:14:48.712Z,71.90
2017-07-24T15:17:17.177Z,74.00
2017-07-24T15:19:45.649Z,72.20
2017-07-24T15:22:14.108Z,74.10
2017-07-24T15:24:42.563Z,80.30
2017-07-24T15:27:11.048Z,81.20
2017-07-24T15:29:39.484Z,83.80
2017-07-24T15:32:07.923Z,85.50
2017-07-24T15:34:36.385Z,85.60
2017-07-24T15:37:04.842Z,85.10
2017-07-24T15:39:33.276Z,83.50
2017-07-24T15:42:01.772Z,85.60
2017-07-24T15:44:30.216Z,86.50
2017-07-24T15:46:58.690Z,87.50
2017-07-24T15:49:27.178Z,87.50
2017-07-24T15:51:55.669Z,86.20
2017-07-24T15:54:24.143Z,84.70
2017-07-24T15:56:52.591Z,85.20
2017-07-24T15:59:21.070Z,86.60
2017-07-24T16:01:49.551Z,87.60
2017-07-24T16:04:18.037Z,86.30
2017-07-24T16:06:46.493Z,82.80
2017-07-24T16:09:14.964Z,84.80
2017-07-24T16:11:43.400Z,85.10
2017-07-24T16:14:11.853Z,84.90
2017-07-24T16:16:40.321Z,84.30
2017-07-24T16:19:08.752Z,84.10
2017-07-24T16:21:37.943Z,83.70
2017-07-24T16:24:06.394Z,83.80
2017-07-24T16:26:34.821Z,82.20
2017-07-24T16:29:03.283Z,84.40
2017-07-24T16:31:31.796Z,84.10
2017-07-24T16:34:00.262Z,85.60
2017-07-24T16:36:28.715Z,86.50
2017-07-24T16:38:57.547Z,87.00
2017-07-24T16:41:26.020Z,87.70
2017-07-24T16:43:54.493Z,88.50
2017-07-24T16:46:23.114Z,86.50
2017-07-24T16:48:51.611Z,84.00
2017-07-24T16:51:20.134Z,84.30
2017-07-24T16:53:48.579Z,89.10
2017-07-24T16:56:17.099Z,87.40
2017-07-24T16:58:45.563Z,89.20
2017-07-24T17:01:14.011Z,90.40
2017-07-24T17:03:42.505Z,91.60
2017-07-24T17:06:10.966Z,92.40
2017-07-24T17:08:39.436Z,92.30
2017-07-24T17:11:07.898Z,91.70
2017-07-24T17:13:36.350Z,91.40
2017-07-24T17:16:04.814Z,92.00
2017-07-24T17:18:33.331Z,90.70
2017-07-24T17:21:01.824Z,90.40
2017-07-24T17:23:30.329Z,90.80
2017-07-24T17:25:58.881Z,91.00
2017-07-24T17:28:27.353Z,91.30
2017-07-24T17:30:55.829Z,91.50
2017-07-24T17:33:24.345Z,91.60
2017-07-24T17:35:52.835Z,92.30
2017-07-24T17:38:21.762Z,91.20
2017-07-24T17:40:50.239Z,90.30
2017-07-24T17:43:18.708Z,89.70
2017-07-24T17:45:47.211Z,90.20
2017-07-24T17:48:15.844Z,90.60
2017-07-24T17:50:44.306Z,90.10
2017-07-24T17:53:12.771Z,90.10
2017-07-24T17:55:41.260Z,86.70
2017-07-24T17:58:09.719Z,89.00
2017-07-24T18:00:38.186Z,87.50
2017-07-24T18:03:06.333Z,88.30
2017-07-24T18:05:34.765Z,87.30
2017-07-24T18:08:03.205Z,87.20
2017-07-24T18:10:31.725Z,87.30
2017-07-24T18:13:01.212Z,88.00
2017-07-24T18:15:29.729Z,88.90
2017-07-24T18:17:58.415Z,89.30
2017-07-24T18:20:26.866Z,90.10
2017-07-24T18:22:55.326Z,90.00
2017-07-24T18:25:23.971Z,90.30
2017-07-24T18:27:52.422Z,89.80
2017-07-24T18:30:20.839Z,90.10
2017-07-24T18:32:49.277Z,90.40
2017-07-24T18:35:17.698Z,91.00
2017-07-24T18:37:46.158Z,90.60
2017-07-24T18:40:14.752Z,90.10
2017-07-24T18:42:43.187Z,90.20
2017-07-24T18:45:11.339Z,90.80
2017-07-24T18:47:40.142Z,91.10
2017-07-24T18:50:08.567Z,92.20
2017-07-24T18:52:36.981Z,91.90
2017-07-24T18:55:05.406Z,91.20
2017-07-24T18:57:33.824Z,90.60
2017-07-24T19:00:02.255Z,90.30
2017-07-24T19:02:30.733Z,90.40
2017-07-24T19:04:59.149Z,90.20
2017-07-24T19:07:27.567Z,89.50
2017-07-24T19:09:56.007Z,88.70
2017-07-24T19:12:24.415Z,88.90
2017-07-24T19:14:52.856Z,90.00
2017-07-24T19:17:21.294Z,88.80
2017-07-24T19:19:49.709Z,87.50
2017-07-24T19:22:18.114Z,88.70
2017-07-24T19:24:46.577Z,89.30
2017-07-24T19:27:14.998Z,89.60
2017-07-24T19:29:43.411Z,89.50
2017-07-24T19:32:11.933Z,89.10
2017-07-24T19:34:40.341Z,89.70
2017-07-24T19:37:08.753Z,88.90
2017-07-24T19:39:37.208Z,90.10
2017-07-24T19:42:05.602Z,90.10
2017-07-24T19:44:34.020Z,90.60
2017-07-24T19:47:02.453Z,90.40
2017-07-24T19:49:30.874Z,91.30
2017-07-24T19:51:59.317Z,90.90
2017-07-24T19:54:27.778Z,90.70
2017-07-24T19:56:56.197Z,90.60
2017-07-24T19:59:24.629Z,90.90
2017-07-24T20:01:53.041Z,91.00
2017-07-24T20:04:21.450Z,90.40
2017-07-24T20:06:49.900Z,90.70
2017-07-24T20:09:18.302Z,90.90
2017-07-24T20:11:46.720Z,90.10
2017-07-24T20:14:16.706Z,89.30
2017-07-24T20:16:45.120Z,89.50
2017-07-24T20:19:13.529Z,90.20
2017-07-24T20:21:41.946Z,89.30
2017-07-24T20:24:10.390Z,86.90
2017-07-24T20:26:38.869Z,87.50
2017-07-24T20:29:07.341Z,87.00
2017-07-24T20:31:35.760Z,87.00
2017-07-24T20:34:04.183Z,86.60
2017-07-24T20:36:33.398Z,90.30
2017-07-24T20:39:01.850Z,90.40
2017-07-24T20:41:30.271Z,90.90
2017-07-24T20:43:58.749Z,90.40
2017-07-24T20:46:27.163Z,91.00
2017-07-24T20:48:55.585Z,91.20
2017-07-24T20:51:24.034Z,91.30
2017-07-24T20:53:52.452Z,91.50
2017-07-24T20:56:20.855Z,91.60
2017-07-24T20:58:49.330Z,91.80
2017-07-24T21:01:17.773Z,92.30
2017-07-24T21:03:46.203Z,91.80
2017-07-24T21:06:14.484Z,91.50
2017-07-24T21:08:42.910Z,92.20
2017-07-24T21:11:11.326Z,91.80
2017-07-24T21:13:39.913Z,91.50
2017-07-24T21:16:08.376Z,91.80
2017-07-24T21:18:36.792Z,92.20
2017-07-24T21:21:05.343Z,91.30
2017-07-24T21:23:33.776Z,91.70
2017-07-24T21:26:02.219Z,89.00
2017-07-24T21:28:30.666Z,86.60
2017-07-24T21:30:59.097Z,85.70
2017-07-24T21:33:27.531Z,80.40
2017-07-24T21:35:56.123Z,80.90
2017-07-24T21:38:24.531Z,77.80
2017-07-24T21:40:52.998Z,76.30
2017-07-24T21:43:21.565Z,75.90
2017-07-24T21:45:50.001Z,77.20
2017-07-24T21:48:18.526Z,80.50
2017-07-24T21:50:47.016Z,84.50
2017-07-24T21:53:15.447Z,84.40
2017-07-24T21:55:43.896Z,86.50
2017-07-24T21:58:12.440Z,89.20
2017-07-24T22:00:40.912Z,89.80
2017-07-24T22:03:09.365Z,90.30
2017-07-24T22:05:37.837Z,90.40
2017-07-24T22:08:06.352Z,90.30
2017-07-24T22:10:34.897Z,91.00
2017-07-24T22:13:03.343Z,90.90
2017-07-24T22:15:31.768Z,91.40
2017-07-24T22:18:00.999Z,91.80
2017-07-24T22:20:29.478Z,91.80
2017-07-24T22:22:57.927Z,91.50
2017-07-24T22:25:26.352Z,92.10
2017-07-24T22:27:54.793Z,91.70
2017-07-24T22:30:23.235Z,91.70
2017-07-24T22:32:51.679Z,90.80
2017-07-24T22:35:20.134Z,90.20
2017-07-24T22:37:48.739Z,90.70
2017-07-24T22:40:17.193Z,90.90
2017-07-24T22:42:45.803Z,91.90
2017-07-24T22:45:14.280Z,90.30
2017-07-24T22:47:42.715Z,85.10
2017-07-24T22:50:11.164Z,88.20
2017-07-24T22:52:39.600Z,88.40
2017-07-24T22:55:08.020Z,89.30
2017-07-24T22:57:36.463Z,89.40
2017-07-24T23:00:04.578Z,90.00
2017-07-24T23:02:33.027Z,90.30
2017-07-24T23:05:02.178Z,90.60
2017-07-24T23:07:30.624Z,90.60
2017-07-24T23:09:59.087Z,90.40
2017-07-24T23:12:27.658Z,89.80
2017-07-24T23:14:56.084Z,90.10
2017-07-24T23:17:24.546Z,90.50
2017-07-24T23:19:52.998Z,90.50
2017-07-24T23:22:21.447Z,90.70
2017-07-24T23:24:49.913Z,90.80
2017-07-24T23:27:18.389Z,90.60
2017-07-24T23:29:46.817Z,90.60
2017-07-24T23:32:15.265Z,90.80
2017-07-24T23:34:43.744Z,91.50
2017-07-24T23:37:12.190Z,91.40
2017-07-24T23:39:40.689Z,91.40
2017-07-24T23:42:09.947Z,91.90
2017-07-24T23:44:38.405Z,91.90
2017-07-24T23:47:07.623Z,92.00
2017-07-24T23:49:36.080Z,91.60
2017-07-24T23:52:04.569Z,91.80
2017-07-24T23:54:33.006Z,92.00
2017-07-24T23:57:01.512Z,91.90
2017-07-24T23:59:30.742Z,92.50
